Time;durP1;ratioP1;P1;durP2;ratioP2;P2;SDS_P1;SDS_P2;PMS_P1;PMS_P2;Temp;Humidity;BMP_temperature;BMP_pressure;BME280_temperature;BME280_humidity;BME280_pressure;Samples;Min_cycle;Max_cycle;Signal;HPM_P1;HPM_P2
2021/03/04 00:01:40;;;;;;;182.93;63.65;;;;;;;;;;4929310;29;20063;-87
2021/03/04 00:04:07;;;;;;;302.50;82.35;;;;;;;;;;4927895;29;20395;-85
2021/03/04 00:06:35;;;;;;;294.58;84.68;;;;;;;;;;4933221;29;20063;-87
2021/03/04 00:09:05;;;;;;;261.50;70.50;;;6.80;99.90;;;;;;4930230;29;20051;-88
2021/03/04 00:11:33;;;;;;;290.60;84.85;;;;;;;;;;4915689;29;20063;-88
2021/03/04 00:14:01;;;;;;;339.98;94.63;;;;;;;;;;4904780;29;20484;-87
2021/03/04 00:16:31;;;;;;;251.35;72.45;;;;;;;;;;4902003;29;20735;-88
2021/03/04 00:18:59;;;;;;;277.85;74.68;;;;;;;;;;4917717;29;20416;-88
2021/03/04 00:21:27;;;;;;;202.82;59.00;;;;;;;;;;4933605;29;20048;-86
2021/03/04 00:23:58;;;;;;;384.88;98.82;;;;;;;;;;4921183;29;20464;-88
2021/03/04 00:26:29;;;;;;;191.57;64.40;;;;;;;;;;4893745;29;20048;-87
2021/03/04 00:28:59;;;;;;;324.45;92.45;;;;;;;;;;4921459;29;20055;-87
2021/03/04 00:31:28;;;;;;;196.07;61.03;;;;;;;;;;4906767;29;20504;-89
2021/03/04 00:33:56;;;;;;;330.10;83.22;;;;;;;;;;4908245;23;20056;-89
2021/03/04 00:36:24;;;;;;;233.43;66.00;;;;;;;;;;4904133;29;20040;-88
2021/03/04 00:38:52;;;;;;;252.40;76.32;;;;;;;;;;4913470;29;20060;-88
2021/03/04 00:41:19;;;;;;;305.40;75.63;;;;;;;;;;4904078;29;20055;-88
2021/03/04 00:43:48;;;;;;;237.65;57.55;;;;;;;;;;4893692;29;20064;-88
2021/03/04 00:46:16;;;;;;;173.25;57.42;;;;;;;;;;4898101;29;20052;-88
2021/03/04 00:48:47;;;;;;;209.00;59.17;;;;;;;;;;4914792;29;20503;-88
2021/03/04 00:51:16;;;;;;;159.27;57.53;;;;;;;;;;4903023;29;20060;-89
2021/03/04 00:53:44;;;;;;;244.25;68.32;;;;;;;;;;4917861;29;20056;-89
2021/03/04 00:56:12;;;;;;;276.75;72.70;;;;;;;;;;4921418;29;20448;-88
2021/03/04 00:58:40;;;;;;;246.75;70.90;;;;;;;;;;4904769;29;20056;-88
2021/03/04 01:01:08;;;;;;;252.05;60.85;;;;;;;;;;4919440;29;20052;-88
2021/03/04 01:03:40;;;;;;;343.30;84.68;;;;;;;;;;4908383;29;20060;-88
2021/03/04 01:06:08;;;;;;;258.38;74.43;;;;;;;;;;4889809;29;20040;-87
2021/03/04 01:08:37;;;;;;;268.20;78.88;;;;;;;;;;4915305;29;20051;-88
2021/03/04 01:11:07;;;;;;;213.88;62.22;;;;;;;;;;4896533;29;20052;-89
2021/03/04 01:13:38;;;;;;;175.95;59.42;;;;;;;;;;4922023;29;20067;-88
2021/03/04 01:16:06;;;;;;;142.13;48.00;;;;;;;;;;4906424;29;20067;-89
2021/03/04 01:18:36;;;;;;;;;;;6.80;99.90;;;;;;4905286;29;20080;-88
2021/03/04 01:21:06;;;;;;;133.95;43.67;;;6.60;99.90;;;;;;4919886;29;19995;-86
2021/03/04 01:23:34;;;;;;;161.27;48.58;;;;;;;;;;4921179;29;20064;-88
2021/03/04 01:26:01;;;;;;;120.38;47.28;;;;;;;;;;4916534;29;20052;-85
2021/03/04 01:28:30;;;;;;;138.13;48.92;;;;;;;;;;4927288;29;20056;-88
2021/03/04 01:30:59;;;;;;;93.82;39.90;;;;;;;;;;4891272;29;20060;-87
2021/03/04 01:33:27;;;;;;;104.32;41.92;;;;;;;;;;4889903;29;20071;-88
2021/03/04 01:36:01;;;;;;;137.60;52.33;;;;;;;;;;4904781;29;20052;-86
2021/03/04 01:38:31;;;;;;;123.35;44.22;;;;;;;;;;4886404;29;20048;-86
2021/03/04 01:40:59;;;;;;;94.03;39.03;;;;;;;;;;4900623;29;20055;-87
2021/03/04 01:43:28;;;;;;;112.93;43.08;;;;;;;;;;4867554;29;20060;-88
2021/03/04 01:45:55;;;;;;;92.38;38.08;;;;;;;;;;4899151;29;20484;-88
2021/03/04 01:48:24;;;;;;;94.38;37.78;;;;;;;;;;4865111;29;20056;-85
2021/03/04 01:50:53;;;;;;;77.80;35.30;;;;;;;;;;4888619;29;20080;-88
2021/03/04 01:53:20;;;;;;;82.75;37.08;;;;;;;;;;4900424;29;20067;-88
2021/03/04 01:55:49;;;;;;;84.22;36.40;;;6.90;99.90;;;;;;4882090;29;20485;-89
2021/03/04 01:58:17;;;;;;;101.40;39.58;;;;;;;;;;4880865;29;20071;-88
2021/03/04 02:00:44;;;;;;;97.28;35.45;;;;;;;;;;4895822;29;20044;-88
2021/03/04 02:03:12;;;;;;;78.78;37.75;;;;;;;;;;4882173;29;20064;-88
2021/03/04 02:05:40;;;;;;;77.88;37.40;;;;;;;;;;4886860;29;20549;-89
2021/03/04 02:08:08;;;;;;;82.25;36.58;;;;;;;;;;4906421;29;20052;-88
2021/03/04 02:10:39;;;;;;;84.65;38.15;;;;;;;;;;4905374;29;20066;-87
2021/03/04 02:13:10;;;;;;;94.50;37.90;;;;;;;;;;4878431;29;20052;-90
2021/03/04 02:15:57;;;;;;;117.53;46.50;;;6.60;99.90;;;;;;4899290;29;20040;-88
2021/03/04 02:18:29;;;;;;;121.43;44.33;;;6.50;99.90;;;;;;4877764;29;20295;-88
2021/03/04 02:21:15;;;;;;;136.75;51.63;;;6.50;99.90;;;;;;4916959;29;20052;-87
2021/03/04 02:24:27;;;;;;;136.80;48.25;;;6.50;99.90;;;;;;4915767;29;20079;-89
2021/03/04 02:27:29;;;;;;;97.60;39.88;;;6.50;99.90;;;;;;4908088;29;20050;-89
2021/03/04 02:30:05;;;;;;;98.40;40.67;;;6.50;99.90;;;;;;4879960;29;20029;-90
2021/03/04 02:32:37;;;;;;;118.60;42.67;;;6.50;99.90;;;;;;4918837;29;20068;-89
2021/03/04 02:35:15;;;;;;;98.57;41.58;;;6.40;99.90;;;;;;4917288;29;20044;-88
2021/03/04 02:38:00;;;;;;;101.28;42.10;;;6.40;99.90;;;;;;4913584;29;20530;-89
2021/03/04 02:40:30;;;;;;;96.63;41.00;;;6.30;99.90;;;;;;4921670;29;20048;-89
2021/03/04 02:43:04;;;;;;;116.63;44.17;;;6.30;99.90;;;;;;4919652;29;20056;-88
2021/03/04 02:45:32;;;;;;;106.50;42.53;;;;;;;;;;4913584;29;20052;-89
2021/03/04 02:48:00;;;;;;;108.28;43.28;;;;;;;;;;4919434;29;20044;-88
2021/03/04 02:50:33;;;;;;;;;;;6.30;99.90;;;;;;4920348;29;20058;-87
2021/03/04 02:53:02;;;;;;;104.85;42.35;;;;;;;;;;4918169;29;19917;-88
2021/03/04 02:55:37;;;;;;;121.47;46.45;;;;;;;;;;4560615;29;10000291;-90
2021/03/04 02:58:12;;;;;;;125.63;47.35;;;;;;;;;;4928143;29;20063;-89
2021/03/04 03:00:47;;;;;;;133.55;47.15;;;6.20;99.90;;;;;;4907217;29;20052;-90
2021/03/04 03:03:24;;;;;;;106.82;41.97;;;;;;;;;;4906175;29;20055;-87
2021/03/04 03:05:55;;;;;;;104.18;43.63;;;6.10;99.90;;;;;;4917845;29;20052;-91
2021/03/04 03:08:26;;;;;;;106.22;47.97;;;;;;;;;;4919295;29;20063;-88
2021/03/04 03:10:57;;;;;;;99.80;41.50;;;;;;;;;;4922308;29;20287;-89
2021/03/04 03:13:25;;;;;;;92.85;40.10;;;;;;;;;;4935709;29;20054;-91
2021/03/04 03:15:53;;;;;;;89.15;38.78;;;;;;;;;;4920834;29;20052;-91
2021/03/04 03:18:23;;;;;;;80.97;37.70;;;;;;;;;;4933373;29;20697;-89
2021/03/04 03:20:54;;;;;;;72.85;33.17;;;;;;;;;;4904928;29;20044;-92
2021/03/04 03:23:22;;;;;;;74.55;31.50;;;;;;;;;;4915962;29;20057;-87
2021/03/04 03:25:49;;;;;;;69.22;29.65;;;;;;;;;;4919486;29;20059;-88
2021/03/04 03:28:17;;;;;;;55.88;26.60;;;;;;;;;;4909572;29;20058;-90
2021/03/04 03:30:46;;;;;;;58.08;25.45;;;;;;;;;;4903992;29;20036;-89
2021/03/04 03:33:17;;;;;;;73.70;29.33;;;6.00;99.90;;;;;;4883337;29;20048;-90
2021/03/04 03:35:46;;;;;;;69.93;29.17;;;6.00;99.90;;;;;;4896632;29;20063;-92
2021/03/04 03:38:15;;;;;;;50.38;28.38;;;6.10;99.90;;;;;;4898647;29;20052;-89
2021/03/04 03:40:49;;;;;;;49.25;23.80;;;6.10;99.90;;;;;;4915957;29;20054;-92
2021/03/04 03:43:17;;;;;;;57.33;27.70;;;;;;;;;;4899153;29;20065;-90
2021/03/04 03:45:50;;;;;;;62.25;28.42;;;6.20;99.90;;;;;;4900051;29;20058;-90
2021/03/04 03:48:23;;;;;;;51.20;25.77;;;6.00;99.90;;;;;;4899380;29;20059;-91
2021/03/04 03:50:53;;;;;;;;;;;6.20;99.90;;;;;;4912798;29;20067;-91
2021/03/04 03:53:21;;;;;;;52.80;24.90;;;6.20;99.90;;;;;;4913371;29;19934;-92
2021/03/04 03:55:52;;;;;;;59.83;22.80;;;6.10;99.90;;;;;;4884857;29;20058;-89
2021/03/04 03:58:23;;;;;;;52.13;22.42;;;6.10;99.90;;;;;;4899114;29;20064;-92
2021/03/04 04:00:56;;;;;;;50.28;24.42;;;;;;;;;;4914615;29;20046;-91
2021/03/04 04:03:25;;;;;;;57.47;25.80;;;;;;;;;;4896246;29;20059;-93
2021/03/04 04:05:53;;;;;;;49.10;23.98;;;;;;;;;;4883191;29;20059;-94
2021/03/04 04:08:23;;;;;;;52.80;25.02;;;;;;;;;;4884030;29;20107;-91
2021/03/04 04:10:57;;;;;;;53.28;23.98;;;;;;;;;;4919029;29;20052;-89
2021/03/04 04:13:27;;;;;;;54.95;25.63;;;;;;;;;;4918809;29;20063;-89
2021/03/04 04:15:54;;;;;;;61.88;27.35;;;;;;;;;;4902194;29;20074;-90
2021/03/04 04:18:22;;;;;;;53.03;26.45;;;;;;;;;;4897080;29;20053;-90
2021/03/04 04:20:50;;;;;;;64.55;24.90;;;;;;;;;;4912963;29;20063;-91
2021/03/04 04:23:22;;;;;;;53.30;25.63;;;6.20;99.90;;;;;;4915295;29;20059;-89
2021/03/04 04:25:52;;;;;;;61.42;25.95;;;6.20;99.90;;;;;;4905813;29;20048;-89
2021/03/04 04:28:26;;;;;;;60.42;27.45;;;6.10;99.90;;;;;;4902528;29;20056;-91
2021/03/04 04:30:55;;;;;;;62.05;28.27;;;;;;;;;;4916133;29;20054;-91
2021/03/04 04:33:23;;;;;;;69.35;29.27;;;;;;;;;;4924933;23;20087;-90
2021/03/04 04:35:55;;;;;;;66.55;30.40;;;6.00;99.90;;;;;;4938142;29;20047;-93
2021/03/04 04:38:25;;;;;;;80.30;32.33;;;;;;;;;;4938749;29;20058;-90
2021/03/04 04:40:56;;;;;;;65.95;32.35;;;;;;;;;;4953190;29;20044;-90
2021/03/04 04:43:25;;;;;;;67.88;33.30;;;;;;;;;;4932383;29;20055;-89
2021/03/04 04:45:53;;;;;;;81.00;33.90;;;;;;;;;;4914531;29;20047;-89
2021/03/04 04:48:21;;;;;;;79.00;36.13;;;;;;;;;;4953248;29;20071;-88
2021/03/04 04:51:09;;;;;;;102.60;40.70;;;;;;;;;;4955854;29;20056;-89
2021/03/04 04:53:36;;;;;;;103.85;46.30;;;;;;;;;;4955280;29;20059;-90
2021/03/04 04:56:04;;;;;;;102.47;43.35;;;;;;;;;;4927752;29;20055;-87
2021/03/04 04:58:32;;;;;;;116.28;45.72;;;;;;;;;;4957461;29;20059;-89
2021/03/04 05:00:59;;;;;;;96.47;39.25;;;;;;;;;;4954571;29;20044;-90
2021/03/04 05:03:30;;;;;;;104.05;41.03;;;;;;;;;;4939098;29;20051;-88
2021/03/04 05:05:58;;;;;;;107.55;43.38;;;;;;;;;;4936504;29;20059;-88
2021/03/04 05:08:25;;;;;;;111.80;46.20;;;;;;;;;;4945885;29;20055;-88
2021/03/04 05:10:53;;;;;;;130.98;50.22;;;;;;;;;;4955456;29;20058;-89
2021/03/04 05:13:22;;;;;;;124.70;45.38;;;;;;;;;;4952914;29;20058;-89
2021/03/04 05:15:52;;;;;;;110.88;44.25;;;;;;;;;;4955102;29;20070;-89
2021/03/04 05:18:20;;;;;;;102.20;41.83;;;;;;;;;;4937261;29;20067;-89
2021/03/04 05:20:52;;;;;;;126.28;41.67;;;;;;;;;;4952318;29;20051;-90
2021/03/04 05:23:19;;;;;;;112.75;43.42;;;;;;;;;;4934643;29;20055;-89
2021/03/04 05:26:13;;;;;;;136.52;50.85;;;6.10;99.90;;;;;;4942014;29;20055;-89
2021/03/04 05:28:43;;;;;;;144.32;46.90;;;;;;;;;;4940555;29;20060;-88
2021/03/04 05:31:13;;;;;;;142.13;47.75;;;;;;;;;;4951852;29;20067;-89
2021/03/04 05:33:41;;;;;;;103.30;46.67;;;;;;;;;;4931991;29;20503;-88
2021/03/04 05:36:10;;;;;;;98.97;43.25;;;;;;;;;;4902393;29;20040;-88
2021/03/04 05:38:39;;;;;;;105.88;39.28;;;;;;;;;;4948215;29;20074;-89
2021/03/04 05:41:08;;;;;;;90.78;44.10;;;6.10;99.90;;;;;;4947807;29;20052;-89
2021/03/04 05:43:39;;;;;;;91.72;38.92;;;;;;;;;;4946196;29;20052;-89
2021/03/04 05:46:07;;;;;;;90.53;41.30;;;;;;;;;;4938023;29;20058;-90
2021/03/04 05:48:38;;;;;;;92.93;40.17;;;5.90;99.90;;;;;;4946598;29;20128;-88
2021/03/04 05:51:09;;;;;;;93.00;37.55;;;6.20;99.90;;;;;;4943678;29;20056;-88
2021/03/04 05:53:40;;;;;;;79.70;36.30;;;6.10;99.90;;;;;;4944238;29;20063;-88
2021/03/04 05:56:10;;;;;;;87.93;41.45;;;;;;;;;;4918325;29;20055;-88
2021/03/04 05:58:37;;;;;;;84.53;38.17;;;;;;;;;;4944706;29;20058;-89
2021/03/04 06:01:05;;;;;;;81.32;37.00;;;;;;;;;;4931729;29;20056;-88
2021/03/04 06:03:33;;;;;;;91.20;39.20;;;;;;;;;;4945910;29;20063;-89
2021/03/04 06:06:08;;;;;;;89.88;39.80;;;;;;;;;;4946518;29;20056;-88
2021/03/04 06:08:37;;;;;;;82.75;38.15;;;6.20;99.90;;;;;;4925818;29;20564;-88
2021/03/04 06:11:06;;;;;;;72.30;34.92;;;;;;;;;;4913899;29;20059;-90
2021/03/04 06:13:37;;;;;;;79.25;36.67;;;6.00;99.90;;;;;;4945139;29;20052;-91
2021/03/04 06:16:06;;;;;;;84.93;36.07;;;;;;;;;;4935809;29;20051;-88
2021/03/04 06:18:43;;;;;;;68.45;32.55;;;;;;;;;;4941566;29;20302;-87
2021/03/04 06:21:22;;;;;;;69.97;35.35;;;6.00;99.90;;;;;;4944788;29;20055;-89
2021/03/04 06:23:51;;;;;;;72.63;37.10;;;;;;;;;;4944758;29;20054;-86
2021/03/04 06:26:38;;;;;;;70.47;34.35;;;;;;;;;;4941928;29;20044;-88
2021/03/04 06:29:17;;;;;;;73.43;34.65;;;5.90;99.90;;;;;;4941690;29;20063;-89
2021/03/04 06:31:57;;;;;;;86.72;39.70;;;6.00;99.90;;;;;;4935069;23;20048;-86
2021/03/04 06:34:35;;;;;;;76.20;36.28;;;;;;;;;;4903576;29;20059;-89
2021/03/04 06:37:05;;;;;;;64.13;33.75;;;6.00;99.90;;;;;;4916639;29;20071;-87
2021/03/04 06:39:42;;;;;;;76.38;32.45;;;6.00;99.90;;;;;;4943546;29;20070;-89
2021/03/04 06:42:13;;;;;;;67.80;29.98;;;6.10;99.90;;;;;;4923873;29;20060;-89
2021/03/04 06:44:44;;;;;;;70.80;28.88;;;6.10;99.90;;;;;;4944007;29;20090;-88
2021/03/04 06:47:24;;;;;;;64.18;29.40;;;6.10;99.90;;;;;;4925885;29;20060;-88
2021/03/04 06:49:53;;;;;;;50.40;27.25;;;7.10;99.90;;;;;;4924510;29;20447;-89
2021/03/04 06:52:40;;;;;;;54.78;26.55;;;;;;;;;;4943944;29;20070;-88
2021/03/04 06:55:08;;;;;;;71.65;30.95;;;;;;;;;;4927728;29;20074;-89
2021/03/04 06:57:35;;;;;;;73.25;28.75;;;;;;;;;;4923684;29;20062;-88
2021/03/04 07:00:16;;;;;;;75.72;28.48;;;5.90;99.90;;;;;;4917182;29;20052;-90
2021/03/04 07:02:54;;;;;;;58.83;27.35;;;;;;;;;;4919632;29;20067;-88
2021/03/04 07:05:23;;;;;;;65.43;28.35;;;;;;;;;;4938427;29;20376;-89
2021/03/04 07:07:54;;;;;;;69.25;27.80;;;6.00;99.90;;;;;;4944344;29;20523;-87
2021/03/04 07:10:25;;;;;;;53.35;25.60;;;5.80;99.90;;;;;;4927714;29;20062;-89
2021/03/04 07:12:53;;;;;;;60.13;26.25;;;;;;;;;;4925677;29;20051;-89
2021/03/04 07:15:25;;;;;;;71.07;28.02;;;;;;;;;;4923724;29;20063;-88
2021/03/04 07:17:59;;;;;;;73.30;29.95;;;6.20;99.90;;;;;;4926894;29;20059;-88
2021/03/04 07:20:33;;;;;;;60.35;27.20;;;6.00;99.90;;;;;;4938658;29;20051;-88
2021/03/04 07:23:11;;;;;;;59.00;26.08;;;6.00;99.90;;;;;;4905689;29;20066;-88
2021/03/04 07:25:40;;;;;;;66.43;24.67;;;;;;;;;;4945187;29;20069;-88
2021/03/04 07:28:13;;;;;;;68.13;29.50;;;6.00;99.90;;;;;;4938376;29;20060;-89
2021/03/04 07:30:41;;;;;;;64.47;31.55;;;;;;;;;;4943858;29;20055;-88
2021/03/04 07:33:12;;;;;;;67.45;30.52;;;;;;;;;;4942363;23;20063;-89
2021/03/04 07:35:40;;;;;;;56.13;25.52;;;;;;;;;;4954144;29;20060;-90
2021/03/04 07:38:09;;;;;;;59.35;27.95;;;;;;;;;;4942253;29;20047;-88
2021/03/04 07:40:40;;;;;;;46.65;21.27;;;;;;;;;;4945490;29;20043;-88
2021/03/04 07:43:12;;;;;;;50.00;20.48;;;;;;;;;;4961445;29;20188;-90
2021/03/04 07:45:45;;;;;;;;;;;6.10;99.90;;;;;;4944092;29;20062;-88
2021/03/04 07:48:16;;;;;;;35.28;18.85;;;;;;;;;;4953222;29;19930;-89
2021/03/04 07:51:01;;;;;;;42.35;20.00;;;5.90;99.90;;;;;;4923212;29;20055;-88
2021/03/04 07:53:42;;;;;;;35.42;19.73;;;6.10;99.90;;;;;;4925291;29;20039;-89
2021/03/04 07:56:27;;;;;;;35.28;18.83;;;6.00;99.90;;;;;;4934568;29;20043;-88
2021/03/04 07:59:12;;;;;;;42.63;19.05;;;;;;;;;;4962070;29;20031;-89
2021/03/04 08:02:01;;;;;;;36.55;18.40;;;6.10;99.90;;;;;;4934831;29;20392;-90
2021/03/04 08:04:34;;;;;;;48.07;21.23;;;;;;;;;;4933134;29;20501;-88
2021/03/04 08:07:06;;;;;;;45.55;20.35;;;;;;;;;;4950652;29;20297;-88
2021/03/04 08:09:36;;;;;;;49.40;22.33;;;;;;;;;;4919067;29;20058;-89
2021/03/04 08:12:04;;;;;;;55.15;22.98;;;6.30;99.90;;;;;;4929137;29;20051;-90
2021/03/04 08:14:32;;;;;;;44.63;19.63;;;;;;;;;;4927956;29;20060;-89
2021/03/04 08:17:00;;;;;;;41.60;18.30;;;;;;;;;;4926474;29;20050;-89
2021/03/04 08:19:32;;;;;;;45.63;18.73;;;5.90;99.90;;;;;;4938740;29;20051;-90
2021/03/04 08:22:02;;;;;;;50.42;19.45;;;5.80;99.90;;;;;;4911590;29;20047;-90
2021/03/04 08:25:02;;;;;;;42.80;17.67;;;3.80;99.90;;;;;;4942524;28;20051;-94
2021/03/04 08:28:30;;;;;;;39.05;19.73;;;;;;;;;;4906826;29;20472;-92
2021/03/04 08:31:08;;;;;;;30.83;13.02;;;;;;;;;;4918483;29;20060;-94
2021/03/04 08:34:17;;;;;;;29.90;11.88;;;;;;;;;;4895025;29;20055;-94
2021/03/04 08:37:17;;;;;;;35.15;13.95;;;;;;;;;;4867105;29;20064;-93
2021/03/04 08:39:49;;;;;;;29.58;12.50;;;;;;;;;;4900200;29;20063;-94
2021/03/04 08:42:33;;;;;;;27.98;11.95;;;;;;;;;;4889140;29;20060;-94
2021/03/04 08:48:52;;;;;;;32.88;13.63;;;5.50;99.90;;;;;;4927042;29;20027;-94
2021/03/04 08:51:57;;;;;;;24.90;11.95;;;;;;;;;;4946097;29;20059;-92
2021/03/04 08:56:01;;;;;;;26.83;11.80;;;;;;;;;;4948725;29;20054;-95
2021/03/04 08:58:54;;;;;;;25.90;12.10;;;;;;;;;;4923364;29;20044;-95
2021/03/04 09:02:29;;;;;;;26.52;12.35;;;;;;;;;;4937807;29;20048;-95
2021/03/04 09:05:22;;;;;;;24.17;11.68;;;;;;;;;;4937023;29;20052;-96
2021/03/04 09:08:26;;;;;;;23.45;11.05;;;;;;;;;;4944359;29;20052;-95
2021/03/04 09:15:49;;;;;;;21.92;11.05;;;;;;;;;;4949020;29;20073;-95
2021/03/04 09:18:53;;;;;;;24.88;9.25;;;;;;;;;;4925864;29;20056;-95
2021/03/04 09:21:51;;;;;;;14.45;6.57;;;;;;;;;;4940733;29;20031;-95
2021/03/04 09:24:46;;;;;;;21.90;9.88;;;;;;;;;;4950518;29;20040;-94
2021/03/04 09:27:32;;;;;;;18.63;9.07;;;;;;;;;;4917204;29;20043;-95
2021/03/04 09:30:30;;;;;;;25.33;10.88;;;5.60;99.90;;;;;;4922227;29;20052;-96
2021/03/04 09:33:29;;;;;;;30.88;14.10;;;;;;;;;;4913000;29;20047;-95
2021/03/04 09:36:56;;;;;;;24.67;9.18;;;5.70;99.90;;;;;;4929538;29;20052;-95
2021/03/04 09:44:26;;;;;;;21.95;10.23;;;5.80;99.90;;;;;;4972355;28;20055;-95
2021/03/04 09:47:43;;;;;;;23.67;9.73;;;;;;;;;;4938724;29;20050;-92
2021/03/04 09:51:14;;;;;;;28.08;11.55;;;5.80;99.90;;;;;;4937851;29;20048;-95
2021/03/04 10:32:39;;;;;;;26.08;11.85;;;;;;;;;;5036224;23;20061;-96
2021/03/04 10:39:58;;;;;;;25.75;9.77;;;;;;;;;;4985733;28;20051;-95
2021/03/04 10:44:06;;;;;;;21.27;10.43;;;;;;;;;;4949598;29;20046;-96
2021/03/04 10:50:42;;;;;;;25.45;11.05;;;;;;;;;;4411238;27;20048;-95
2021/03/04 10:57:24;;;;;;;26.58;11.65;;;;;;;;;;4933747;29;20060;-95
2021/03/04 11:00:13;;;;;;;21.83;11.38;;;;;;;;;;4930424;29;20056;-95
2021/03/04 11:03:05;;;;;;;23.77;11.32;;;;;;;;;;4898457;29;20056;-95
2021/03/04 11:06:12;;;;;;;19.88;9.80;;;;;;;;;;4918508;29;20050;-94
2021/03/04 11:08:47;;;;;;;26.70;12.10;;;;;;;;;;4904546;29;20066;-96
2021/03/04 11:11:30;;;;;;;26.38;11.77;;;;;;;;;;4917999;29;20271;-95
2021/03/04 11:14:19;;;;;;;23.05;9.60;;;;;;;;;;4946963;29;20051;-95
2021/03/04 11:17:50;;;;;;;22.00;9.15;;;6.50;99.90;;;;;;4926455;29;20052;-96
2021/03/04 11:21:03;;;;;;;23.02;9.57;;;;;;;;;;4922818;29;20055;-95
2021/03/04 11:31:19;;;;;;;16.38;6.78;;;;;;;;;;5057606;23;20035;-94
2021/03/04 11:34:34;;;;;;;21.13;7.93;;;6.60;99.90;;;;;;4964717;28;20051;-95
2021/03/04 11:37:15;;;;;;;17.35;6.50;;;;;;;;;;4941039;29;20506;-94
2021/03/04 11:40:14;;;;;;;13.90;5.97;;;;;;;;;;4929179;29;20049;-94
2021/03/04 11:46:59;;;;;;;15.02;4.70;;;;;;;;;;4972568;28;20040;-93
2021/03/04 11:51:06;;;;;;;12.10;5.60;;;6.80;99.90;;;;;;4924899;29;20048;-95
2021/03/04 11:53:55;;;;;;;15.70;5.65;;;;;;;;;;4889327;29;20044;-93
2021/03/04 11:56:33;;;;;;;12.88;4.80;;;;;;;;;;4892584;29;20060;-95
2021/03/04 11:59:36;;;;;;;10.65;4.80;;;;;;;;;;4929459;29;20048;-93
2021/03/04 12:02:35;;;;;;;12.40;5.70;;;;;;;;;;4905786;29;20071;-94
2021/03/04 12:05:24;;;;;;;;;;;6.60;99.90;;;;;;4907572;29;20055;-94
2021/03/04 12:08:07;;;;;;;8.77;4.70;;;;;;;;;;4902197;29;19943;-96
2021/03/04 12:10:37;;;;;;;13.65;5.05;;;;;;;;;;4906289;29;20048;-94
2021/03/04 12:13:09;;;;;;;10.98;5.28;;;;;;;;;;4896921;29;20052;-94
2021/03/04 12:16:14;;;;;;;15.52;4.88;;;6.90;99.90;;;;;;4895315;29;20074;-93
2021/03/04 12:22:25;;;;;;;8.02;3.47;;;;;;;;;;4947662;29;20395;-93
2021/03/04 12:25:39;;;;;;;9.00;4.07;;;7.20;99.90;;;;;;4920836;29;20028;-93
2021/03/04 12:28:32;;;;;;;10.18;4.43;;;7.30;99.90;;;;;;4922726;29;20052;-95
2021/03/04 12:31:11;;;;;;;13.98;5.38;;;;;;;;;;4922529;29;20066;-93
2021/03/04 12:33:40;;;;;;;11.07;4.53;;;;;;;;;;4895213;29;20092;-92
2021/03/04 12:36:48;;;;;;;10.85;5.05;;;;;;;;;;4913312;29;20058;-94
2021/03/04 12:39:48;;;;;;;9.48;4.75;;;;;;;;;;4924105;29;20062;-94
2021/03/04 12:42:31;;;;;;;10.93;4.38;;;;;;;;;;4908447;29;20056;-93
2021/03/04 12:45:48;;;;;;;8.73;4.78;;;;;;;;;;4922417;29;20060;-95
2021/03/04 12:48:28;;;;;;;8.10;4.38;;;;;;;;;;4909017;29;20247;-94
2021/03/04 12:51:46;;;;;;;9.55;3.83;;;;;;;;;;4983856;23;20076;-94
2021/03/04 12:55:20;;;;;;;4.78;3.15;;;;;;;;;;4898539;29;20059;-95
2021/03/04 12:58:35;;;;;;;9.25;3.95;;;7.30;99.90;;;;;;4950141;29;20053;-95
2021/03/04 13:02:20;;;;;;;8.20;3.38;;;;;;;;;;4933073;29;20488;-96
2021/03/04 13:08:32;;;;;;;4.15;2.72;;;;;;;;;;5218929;23;20049;-95
2021/03/04 13:16:28;;;;;;;;;;;;;;;;;;;;;
2021/03/04 13:19:42;;;;;;;6.32;4.20;;;;;;;;;;4813079;29;20062;-94
2021/03/04 13:22:37;;;;;;;8.40;3.25;;;;;;;;;;4790924;30;20063;-95
2021/03/04 13:26:13;;;;;;;6.07;2.80;;;;;;;;;;4819568;29;20051;-93
2021/03/04 13:29:43;;;;;;;6.18;2.47;;;7.20;99.90;;;;;;4793594;29;20046;-94
2021/03/04 13:39:31;;;;;;;4.72;2.83;;;;;;;;;;4771684;30;20056;-94
2021/03/04 13:51:52;;;;;;;3.97;2.75;;;;;;;;;;4885025;23;20449;-91
2021/03/04 14:01:08;;;;;;;5.75;2.35;;;;;;;;;;4868342;29;20294;-92
2021/03/04 14:03:38;;;;;;;1.88;1.70;;;;;;;;;;4841074;29;20517;-90
2021/03/04 14:06:09;;;;;;;2.33;1.73;;;;;;;;;;4826923;29;20057;-92
2021/03/04 14:08:43;;;;;;;2.03;1.52;;;;;;;;;;4830974;29;20061;-92
2021/03/04 14:11:14;;;;;;;2.00;1.70;;;;;;;;;;4832927;29;20057;-91
2021/03/04 14:13:45;;;;;;;2.47;1.98;;;;;;;;;;4834831;29;20058;-93
2021/03/04 14:16:16;;;;;;;2.17;1.60;;;;;;;;;;4859412;29;20049;-91
2021/03/04 14:18:49;;;;;;;3.35;3.08;;;;;;;;;;4842080;29;20059;-93
2021/03/04 14:21:53;;;;;;;1.70;1.60;;;7.50;99.90;;;;;;4853776;29;20058;-92
2021/03/04 14:24:28;;;;;;;2.97;2.20;;;;;;;;;;4825633;29;20117;-90
2021/03/04 14:27:00;;;;;;;3.78;2.55;;;;;;;;;;4839151;29;20050;-91
2021/03/04 14:29:31;;;;;;;2.00;1.52;;;;;;;;;;4844066;29;20064;-90
2021/03/04 14:32:04;;;;;;;2.85;2.20;;;;;;;;;;4859492;29;20065;-88
2021/03/04 14:34:34;;;;;;;3.33;3.00;;;;;;;;;;4853660;29;20064;-93
2021/03/04 14:37:10;;;;;;;2.17;1.77;;;;;;;;;;4822470;29;20058;-86
2021/03/04 14:39:41;;;;;;;3.08;2.03;;;;;;;;;;4826929;29;20048;-91
2021/03/04 14:42:14;;;;;;;2.85;2.00;;;;;;;;;;4830499;29;20058;-92
2021/03/04 14:44:49;;;;;;;8.35;3.17;;;;;;;;;;4837643;29;20454;-91
2021/03/04 14:47:22;;;;;;;4.40;2.40;;;;;;;;;;4826729;29;20065;-92
2021/03/04 14:49:53;;;;;;;4.78;2.22;;;;;;;;;;4840697;29;20053;-92
2021/03/04 14:52:26;;;;;;;4.35;2.85;;;;;;;;;;4841233;29;20053;-92
2021/03/04 14:54:58;;;;;;;3.03;2.63;;;;;;;;;;4829729;29;20064;-91
2021/03/04 14:57:32;;;;;;;3.72;2.30;;;;;;;;;;4857619;29;20065;-90
2021/03/04 15:00:08;;;;;;;2.63;2.13;;;;;;;;;;4827025;29;20049;-92
2021/03/04 15:02:41;;;;;;;5.07;2.78;;;;;;;;;;4825377;29;20057;-91
2021/03/04 15:05:14;;;;;;;3.97;2.28;;;;;;;;;;4502451;29;9999906;-91
2021/03/04 15:07:46;;;;;;;2.85;2.42;;;;;;;;;;4835300;29;20060;-91
2021/03/04 15:10:23;;;;;;;3.65;2.60;;;;;;;;;;4835693;29;20061;-95
2021/03/04 15:13:00;;;;;;;4.15;2.50;;;;;;;;;;4830329;29;20053;-92
2021/03/04 15:20:44;;;;;;;4.13;2.13;;;7.00;99.90;;;;;;4854829;29;20042;-91
2021/03/04 15:24:51;;;;;;;3.88;2.35;;;6.80;99.90;;;;;;4849537;29;20069;-91
2021/03/04 15:28:17;;;;;;;3.90;2.72;;;;;;;;;;4838286;29;20056;-92
2021/03/04 15:30:49;;;;;;;4.72;2.80;;;;;;;;;;4824929;29;20053;-90
2021/03/04 15:33:51;;;;;;;5.07;2.75;;;;;;;;;;4851140;29;20054;-93
2021/03/04 15:36:21;;;;;;;5.30;2.65;;;;;;;;;;4864799;29;20049;-90
2021/03/04 15:38:52;;;;;;;4.13;2.90;;;;;;;;;;4829801;29;20169;-89
2021/03/04 15:45:11;;;;;;;5.67;4.03;;;;;;;;;;4841300;29;20046;-93
2021/03/04 15:47:46;;;;;;;8.43;2.65;;;;;;;;;;4828349;29;20058;-92
2021/03/04 15:50:18;;;;;;;;;;;6.80;99.90;;;;;;4814248;29;20049;-91
2021/03/04 15:53:53;;;;;;;6.38;3.25;;;;;;;;;;4849264;29;19939;-92
2021/03/04 15:56:41;;;;;;;11.23;3.88;;;;;;;;;;4837570;29;20076;-92
2021/03/04 16:00:08;;;;;;;4.75;3.10;;;;;;;;;;4824218;29;20059;-92
2021/03/04 16:02:52;;;;;;;4.80;3.03;;;;;;;;;;4837929;29;20063;-92
2021/03/04 16:05:27;;;;;;;5.40;3.15;;;;;;;;;;4817922;29;20054;-92
2021/03/04 16:08:02;;;;;;;5.72;2.90;;;;;;;;;;4821388;29;20418;-92
2021/03/04 16:10:37;;;;;;;9.60;3.58;;;;;;;;;;4830352;29;20041;-92
2021/03/04 16:13:31;;;;;;;3.45;2.50;;;6.80;99.90;;;;;;4815127;29;20053;-93
2021/03/04 16:16:06;;;;;;;5.13;3.08;;;;;;;;;;4810561;29;20058;-93
2021/03/04 16:18:42;;;;;;;6.23;3.03;;;;;;;;;;4848111;29;20049;-93
2021/03/04 16:21:17;;;;;;;7.75;3.35;;;;;;;;;;4842426;29;20301;-93
2021/03/04 16:24:00;;;;;;;7.57;4.03;;;;;;;;;;4834387;29;20073;-94
2021/03/04 16:26:32;;;;;;;4.93;4.18;;;;;;;;;;4852387;29;20054;-92
2021/03/04 16:29:08;;;;;;;5.78;3.17;;;;;;;;;;4834976;29;20069;-93
2021/03/04 16:31:44;;;;;;;7.35;3.55;;;;;;;;;;4849482;29;20061;-92
2021/03/04 16:34:22;;;;;;;8.27;4.32;;;;;;;;;;4840851;29;20050;-93
2021/03/04 16:36:54;;;;;;;7.80;3.85;;;;;;;;;;4828578;29;20069;-94
2021/03/04 16:39:24;;;;;;;13.38;5.70;;;;;;;;;;4828463;29;20060;-92
2021/03/04 16:42:03;;;;;;;7.82;3.70;;;;;;;;;;4844439;29;20075;-92
2021/03/04 16:44:35;;;;;;;6.65;4.00;;;;;;;;;;4795432;29;20518;-93
2021/03/04 16:47:09;;;;;;;7.03;3.45;;;;;;;;;;4826988;29;20056;-93
2021/03/04 16:49:37;;;;;;;7.65;3.97;;;;;;;;;;4847453;29;20050;-91
2021/03/04 16:52:15;;;;;;;11.20;4.18;;;;;;;;;;4836726;29;20053;-93
2021/03/04 16:54:50;;;;;;;6.18;3.60;;;7.20;99.90;;;;;;4833580;29;20045;-93
2021/03/04 16:57:24;;;;;;;9.00;4.60;;;;;;;;;;4849823;29;20061;-92
2021/03/04 17:00:17;;;;;;;10.40;4.20;;;;;;;;;;4859008;29;20375;-93
2021/03/04 17:02:57;;;;;;;12.45;4.57;;;;;;;;;;4846636;29;20057;-92
2021/03/04 17:05:38;;;;;;;9.18;4.65;;;;;;;;;;4828972;29;20061;-92